GBODE EGNH-EGBO
Flight info
| Callsign | GBODE |
|---|---|
| Flight time | 1h 7m |
| Altitude | 2300 |
| Route | EGNH DCT ST ANNES PIER DCT SOUTHPORT PIER DCT LEIGH FLASH DCT ASHCROFT FARM DCT BALDWIN GATE DCT BRIDGNORTH DCT EGBO |
| Aircraft | P28A/L-VGDW/C |
Departure
| Time | 2026-05-04 13:15 |
|---|---|
| Airport | Blackpool Airport (EGNH) |
Arrival
| Time | 2026-05-04 14:22 |
|---|---|
| Airport | Wolverhampton Halfpenny Green Airport (EGBO) |
| Time | Latitude | Longitude | Altitude | Speed | Heading |
|---|---|---|---|---|---|
| 2026-05-04 12:54 | 53.77576 | -3.04379 | 43 ft | 0 kts | 355° |
| 2026-05-04 13:06 | 53.77579 | -3.04380 | 43 ft | 2 kts | 360° |
| 2026-05-04 13:07 | 53.77597 | -3.04322 | 43 ft | 9 kts | 82° |
| 2026-05-04 13:07 | 53.77601 | -3.04235 | 43 ft | 6 kts | 101° |
| 2026-05-04 13:07 | 53.77639 | -3.04171 | 43 ft | 10 kts | 32° |
| 2026-05-04 13:07 | 53.77712 | -3.04093 | 43 ft | 14 kts | 31° |
| 2026-05-04 13:08 | 53.77773 | -3.03952 | 43 ft | 17 kts | 73° |
| 2026-05-04 13:08 | 53.77807 | -3.03757 | 43 ft | 18 kts | 76° |
| 2026-05-04 13:08 | 53.77731 | -3.03620 | 43 ft | 19 kts | 163° |
| 2026-05-04 13:08 | 53.77601 | -3.03556 | 43 ft | 20 kts | 167° |
| 2026-05-04 13:09 | 53.77463 | -3.03567 | 43 ft | 21 kts | 188° |
| 2026-05-04 13:09 | 53.77382 | -3.03535 | 43 ft | 12 kts | 81° |
| 2026-05-04 13:09 | 53.77414 | -3.03398 | 43 ft | 13 kts | 71° |
| 2026-05-04 13:09 | 53.77451 | -3.03249 | 43 ft | 14 kts | 68° |
| 2026-05-04 13:10 | 53.77466 | -3.03118 | 43 ft | 11 kts | 129° |
| 2026-05-04 13:10 | 53.77395 | -3.03077 | 43 ft | 10 kts | 165° |
| 2026-05-04 13:10 | 53.77364 | -3.03060 | 43 ft | 0 kts | 196° |
| 2026-05-04 13:12 | 53.77345 | -3.03052 | 43 ft | 6 kts | 163° |
| 2026-05-04 13:13 | 53.77307 | -3.03033 | 43 ft | 2 kts | 164° |
| 2026-05-04 13:13 | 53.77305 | -3.03032 | 43 ft | 0 kts | 165° |
| 2026-05-04 13:13 | 53.77304 | -3.03032 | 43 ft | 1 kts | 165° |
| 2026-05-04 13:14 | 53.77283 | -3.03021 | 43 ft | 7 kts | 163° |
| 2026-05-04 13:14 | 53.77212 | -3.02985 | 43 ft | 8 kts | 164° |
| 2026-05-04 13:14 | 53.77164 | -3.03010 | 44 ft | 10 kts | 257° |
| 2026-05-04 13:14 | 53.77182 | -3.03400 | 47 ft | 62 kts | 276° |
| 2026-05-04 13:15 | 53.77195 | -3.04264 | 220 ft | 80 kts | 278° |
| 2026-05-04 13:15 | 53.77238 | -3.05211 | 507 ft | 82 kts | 277° |
| 2026-05-04 13:15 | 53.77240 | -3.06153 | 816 ft | 83 kts | 259° |
| 2026-05-04 13:15 | 53.76778 | -3.06588 | 1161 ft | 85 kts | 175° |
| 2026-05-04 13:16 | 53.76309 | -3.06005 | 1492 ft | 84 kts | 127° |
| 2026-05-04 13:16 | 53.75910 | -3.05242 | 1755 ft | 89 kts | 131° |
| 2026-05-04 13:16 | 53.75474 | -3.04461 | 2003 ft | 93 kts | 133° |
| 2026-05-04 13:16 | 53.75003 | -3.03755 | 2274 ft | 92 kts | 150° |
| 2026-05-04 13:17 | 53.74391 | -3.03501 | 2346 ft | 87 kts | 172° |
| 2026-05-04 13:17 | 53.73806 | -3.03320 | 2374 ft | 90 kts | 168° |
| 2026-05-04 13:17 | 53.73168 | -3.03168 | 2395 ft | 94 kts | 173° |
| 2026-05-04 13:17 | 53.72502 | -3.03016 | 2397 ft | 98 kts | 171° |
| 2026-05-04 13:18 | 53.71823 | -3.02850 | 2346 ft | 98 kts | 171° |
| 2026-05-04 13:18 | 53.71155 | -3.02656 | 2313 ft | 96 kts | 170° |
| 2026-05-04 13:18 | 53.70492 | -3.02470 | 2277 ft | 96 kts | 172° |
| 2026-05-04 13:18 | 53.69835 | -3.02316 | 2268 ft | 94 kts | 174° |
| 2026-05-04 13:19 | 53.69182 | -3.02183 | 2246 ft | 95 kts | 172° |
| 2026-05-04 13:19 | 53.68547 | -3.02062 | 2260 ft | 92 kts | 172° |
| 2026-05-04 13:19 | 53.67901 | -3.01914 | 2227 ft | 94 kts | 173° |
| 2026-05-04 13:19 | 53.67264 | -3.01809 | 2250 ft | 91 kts | 173° |
| 2026-05-04 13:20 | 53.66632 | -3.01667 | 2255 ft | 90 kts | 171° |
| 2026-05-04 13:20 | 53.66023 | -3.01449 | 2259 ft | 91 kts | 167° |
| 2026-05-04 13:20 | 53.65490 | -3.00924 | 2270 ft | 90 kts | 127° |
| 2026-05-04 13:20 | 53.65208 | -2.99988 | 2279 ft | 89 kts | 114° |
| 2026-05-04 13:21 | 53.64961 | -2.99028 | 2279 ft | 90 kts | 114° |
| 2026-05-04 13:21 | 53.64717 | -2.98064 | 2293 ft | 89 kts | 113° |
| 2026-05-04 13:21 | 53.64473 | -2.97099 | 2296 ft | 90 kts | 114° |
| 2026-05-04 13:21 | 53.64220 | -2.96146 | 2317 ft | 89 kts | 114° |
| 2026-05-04 13:22 | 53.63965 | -2.95190 | 2325 ft | 89 kts | 114° |
| 2026-05-04 13:22 | 53.63704 | -2.94256 | 2331 ft | 89 kts | 116° |
| 2026-05-04 13:22 | 53.63424 | -2.93324 | 2336 ft | 89 kts | 116° |
| 2026-05-04 13:22 | 53.63144 | -2.92388 | 2339 ft | 89 kts | 115° |
| 2026-05-04 13:23 | 53.62863 | -2.91457 | 2351 ft | 89 kts | 116° |
| 2026-05-04 13:23 | 53.62585 | -2.90521 | 2352 ft | 89 kts | 117° |
| 2026-05-04 13:23 | 53.62305 | -2.89587 | 2363 ft | 89 kts | 118° |
| 2026-05-04 13:23 | 53.62013 | -2.88664 | 2367 ft | 89 kts | 119° |
| 2026-05-04 13:24 | 53.61711 | -2.87752 | 2377 ft | 89 kts | 119° |
| 2026-05-04 13:24 | 53.61412 | -2.86836 | 2394 ft | 89 kts | 120° |
| 2026-05-04 13:24 | 53.61102 | -2.85933 | 2385 ft | 89 kts | 121° |
| 2026-05-04 13:25 | 53.60451 | -2.84168 | 2386 ft | 90 kts | 128° |
| 2026-05-04 13:25 | 53.60064 | -2.83353 | 2404 ft | 89 kts | 129° |
| 2026-05-04 13:25 | 53.59678 | -2.82522 | 2411 ft | 89 kts | 129° |
| 2026-05-04 13:25 | 53.59343 | -2.81818 | 2410 ft | 90 kts | 132° |
| 2026-05-04 13:26 | 53.58917 | -2.81042 | 2422 ft | 89 kts | 135° |
| 2026-05-04 13:26 | 53.58510 | -2.80244 | 2423 ft | 90 kts | 130° |
| 2026-05-04 13:26 | 53.58136 | -2.79449 | 2386 ft | 85 kts | 130° |
| 2026-05-04 13:26 | 53.57768 | -2.78659 | 2301 ft | 87 kts | 129° |
| 2026-05-04 13:27 | 53.57412 | -2.77849 | 2226 ft | 87 kts | 128° |
| 2026-05-04 13:27 | 53.57048 | -2.77027 | 2126 ft | 88 kts | 128° |
| 2026-05-04 13:27 | 53.56656 | -2.76216 | 2029 ft | 89 kts | 131° |
| 2026-05-04 13:27 | 53.56250 | -2.75406 | 1907 ft | 91 kts | 131° |
| 2026-05-04 13:28 | 53.55852 | -2.74590 | 1815 ft | 90 kts | 130° |
| 2026-05-04 13:28 | 53.55450 | -2.73771 | 1717 ft | 91 kts | 130° |
| 2026-05-04 13:28 | 53.55062 | -2.72940 | 1632 ft | 91 kts | 129° |
| 2026-05-04 13:28 | 53.54798 | -2.72367 | 1576 ft | 91 kts | 129° |
| 2026-05-04 13:29 | 53.54420 | -2.71524 | 1492 ft | 90 kts | 127° |
| 2026-05-04 13:29 | 53.54061 | -2.70646 | 1409 ft | 90 kts | 126° |
| 2026-05-04 13:29 | 53.53715 | -2.69767 | 1342 ft | 90 kts | 125° |
| 2026-05-04 13:29 | 53.53376 | -2.68874 | 1265 ft | 91 kts | 124° |
| 2026-05-04 13:30 | 53.53152 | -2.68278 | 1217 ft | 91 kts | 123° |
| 2026-05-04 13:30 | 53.52818 | -2.67384 | 1152 ft | 90 kts | 124° |
| 2026-05-04 13:30 | 53.52373 | -2.66188 | 1148 ft | 91 kts | 123° |
| 2026-05-04 13:30 | 53.52039 | -2.65243 | 1073 ft | 95 kts | 122° |
| 2026-05-04 13:31 | 53.51810 | -2.64606 | 1093 ft | 94 kts | 123° |
| 2026-05-04 13:31 | 53.51464 | -2.63679 | 1082 ft | 94 kts | 124° |
| 2026-05-04 13:31 | 53.51117 | -2.62753 | 1077 ft | 94 kts | 124° |
| 2026-05-04 13:31 | 53.50774 | -2.61828 | 1080 ft | 92 kts | 123° |
| 2026-05-04 13:32 | 53.50450 | -2.60890 | 1083 ft | 92 kts | 121° |
| 2026-05-04 13:32 | 53.50128 | -2.59949 | 1079 ft | 93 kts | 122° |
| 2026-05-04 13:32 | 53.49796 | -2.59017 | 1075 ft | 93 kts | 122° |
| 2026-05-04 13:32 | 53.49473 | -2.58078 | 1069 ft | 92 kts | 122° |
| 2026-05-04 13:33 | 53.49132 | -2.57180 | 1089 ft | 92 kts | 128° |
| 2026-05-04 13:33 | 53.48662 | -2.56495 | 1113 ft | 89 kts | 158° |
| 2026-05-04 13:33 | 53.48041 | -2.56352 | 1075 ft | 93 kts | 178° |
| 2026-05-04 13:33 | 53.47397 | -2.56276 | 1085 ft | 92 kts | 178° |
| 2026-05-04 13:34 | 53.46753 | -2.56230 | 1082 ft | 93 kts | 180° |
| 2026-05-04 13:34 | 53.46110 | -2.56204 | 1076 ft | 93 kts | 181° |
| 2026-05-04 13:34 | 53.45473 | -2.56192 | 1066 ft | 92 kts | 182° |
| 2026-05-04 13:34 | 53.44833 | -2.56194 | 1061 ft | 92 kts | 182° |
| 2026-05-04 13:35 | 53.44193 | -2.56191 | 1083 ft | 90 kts | 181° |
| 2026-05-04 13:35 | 53.42921 | -2.56199 | 1101 ft | 92 kts | 183° |
| 2026-05-04 13:35 | 53.42283 | -2.56182 | 1107 ft | 91 kts | 179° |
| 2026-05-04 13:36 | 53.41655 | -2.56142 | 1110 ft | 91 kts | 181° |
| 2026-05-04 13:36 | 53.41020 | -2.56127 | 1115 ft | 91 kts | 181° |
| 2026-05-04 13:36 | 53.40385 | -2.56099 | 1113 ft | 91 kts | 181° |
| 2026-05-04 13:36 | 53.39750 | -2.56080 | 1117 ft | 91 kts | 182° |
| 2026-05-04 13:37 | 53.39116 | -2.56072 | 1118 ft | 91 kts | 181° |
| 2026-05-04 13:37 | 53.38481 | -2.56042 | 1114 ft | 91 kts | 181° |
| 2026-05-04 13:37 | 53.37847 | -2.56022 | 1124 ft | 91 kts | 181° |
| 2026-05-04 13:37 | 53.37212 | -2.56008 | 1127 ft | 91 kts | 181° |
| 2026-05-04 13:38 | 53.36578 | -2.55996 | 1126 ft | 91 kts | 181° |
| 2026-05-04 13:38 | 53.35944 | -2.55984 | 1127 ft | 91 kts | 182° |
| 2026-05-04 13:38 | 53.35311 | -2.55963 | 1132 ft | 91 kts | 181° |
| 2026-05-04 13:38 | 53.34677 | -2.55951 | 1135 ft | 91 kts | 181° |
| 2026-05-04 13:39 | 53.34042 | -2.55960 | 1127 ft | 92 kts | 184° |
| 2026-05-04 13:39 | 53.33413 | -2.55939 | 1137 ft | 91 kts | 181° |
| 2026-05-04 13:39 | 53.32779 | -2.55918 | 1138 ft | 91 kts | 181° |
| 2026-05-04 13:39 | 53.32143 | -2.55901 | 1141 ft | 91 kts | 182° |
| 2026-05-04 13:40 | 53.31509 | -2.55907 | 1134 ft | 91 kts | 181° |
| 2026-05-04 13:40 | 53.30873 | -2.55899 | 1134 ft | 91 kts | 182° |
| 2026-05-04 13:40 | 53.30239 | -2.55893 | 1133 ft | 92 kts | 181° |
| 2026-05-04 13:40 | 53.29603 | -2.55896 | 1139 ft | 91 kts | 183° |
| 2026-05-04 13:41 | 53.28968 | -2.55880 | 1132 ft | 92 kts | 180° |
| 2026-05-04 13:41 | 53.28332 | -2.55862 | 1144 ft | 91 kts | 181° |
| 2026-05-04 13:41 | 53.27694 | -2.55844 | 1137 ft | 92 kts | 181° |
| 2026-05-04 13:42 | 53.26422 | -2.55797 | 1136 ft | 91 kts | 181° |
| 2026-05-04 13:42 | 53.25787 | -2.55782 | 1128 ft | 92 kts | 182° |
| 2026-05-04 13:42 | 53.25151 | -2.55775 | 1130 ft | 91 kts | 181° |
| 2026-05-04 13:42 | 53.24514 | -2.55755 | 1128 ft | 92 kts | 180° |
| 2026-05-04 13:43 | 53.23880 | -2.55689 | 1138 ft | 91 kts | 177° |
| 2026-05-04 13:43 | 53.23244 | -2.55628 | 1145 ft | 91 kts | 179° |
| 2026-05-04 13:43 | 53.22616 | -2.55576 | 1151 ft | 91 kts | 179° |
| 2026-05-04 13:43 | 53.21981 | -2.55538 | 1152 ft | 91 kts | 180° |
| 2026-05-04 13:44 | 53.21343 | -2.55489 | 1154 ft | 92 kts | 180° |
| 2026-05-04 13:44 | 53.20708 | -2.55455 | 1161 ft | 91 kts | 180° |
| 2026-05-04 13:44 | 53.20069 | -2.55449 | 1157 ft | 91 kts | 182° |
| 2026-05-04 13:44 | 53.19430 | -2.55471 | 1151 ft | 92 kts | 184° |
| 2026-05-04 13:45 | 53.18793 | -2.55512 | 1169 ft | 92 kts | 185° |
| 2026-05-04 13:45 | 53.18150 | -2.55547 | 1159 ft | 93 kts | 185° |
| 2026-05-04 13:45 | 53.17498 | -2.55624 | 1150 ft | 93 kts | 188° |
| 2026-05-04 13:45 | 53.17290 | -2.55663 | 1148 ft | 93 kts | 189° |
| 2026-05-04 13:46 | 53.17105 | -2.55702 | 1138 ft | 93 kts | 189° |
| 2026-05-04 13:46 | 53.16486 | -2.55872 | 1120 ft | 94 kts | 195° |
| 2026-05-04 13:46 | 53.15845 | -2.55868 | 1123 ft | 96 kts | 163° |
| 2026-05-04 13:47 | 53.15312 | -2.55284 | 1459 ft | 87 kts | 143° |
| 2026-05-04 13:47 | 53.14858 | -2.54622 | 1715 ft | 88 kts | 139° |
| 2026-05-04 13:47 | 53.14403 | -2.53971 | 1996 ft | 87 kts | 142° |
| 2026-05-04 13:47 | 53.13959 | -2.53287 | 2249 ft | 88 kts | 140° |
| 2026-05-04 13:48 | 53.13479 | -2.52613 | 2274 ft | 90 kts | 142° |
| 2026-05-04 13:48 | 53.13010 | -2.51934 | 2332 ft | 89 kts | 141° |
| 2026-05-04 13:48 | 53.12522 | -2.51261 | 2344 ft | 92 kts | 142° |
| 2026-05-04 13:48 | 53.12026 | -2.50565 | 2355 ft | 94 kts | 142° |
| 2026-05-04 13:49 | 53.11520 | -2.49846 | 2345 ft | 97 kts | 140° |
| 2026-05-04 13:49 | 53.11002 | -2.49123 | 2352 ft | 97 kts | 142° |
| 2026-05-04 13:49 | 53.10484 | -2.48394 | 2351 ft | 98 kts | 142° |
| 2026-05-04 13:49 | 53.09958 | -2.47671 | 2336 ft | 99 kts | 141° |
| 2026-05-04 13:50 | 53.09441 | -2.46948 | 2318 ft | 96 kts | 143° |
| 2026-05-04 13:50 | 53.08929 | -2.46258 | 2296 ft | 95 kts | 141° |
| 2026-05-04 13:50 | 53.08431 | -2.45545 | 2262 ft | 95 kts | 141° |
| 2026-05-04 13:50 | 53.07933 | -2.44844 | 2253 ft | 93 kts | 142° |
| 2026-05-04 13:51 | 53.07434 | -2.44155 | 2232 ft | 92 kts | 143° |
| 2026-05-04 13:51 | 53.06928 | -2.43506 | 2217 ft | 92 kts | 145° |
| 2026-05-04 13:51 | 53.06434 | -2.42823 | 2208 ft | 91 kts | 139° |
| 2026-05-04 13:51 | 53.05975 | -2.42132 | 2203 ft | 91 kts | 140° |
| 2026-05-04 13:52 | 53.05033 | -2.40754 | 2206 ft | 89 kts | 140° |
| 2026-05-04 13:52 | 53.04554 | -2.40097 | 2209 ft | 90 kts | 144° |
| 2026-05-04 13:52 | 53.04063 | -2.39466 | 2219 ft | 89 kts | 141° |
| 2026-05-04 13:53 | 53.03589 | -2.38816 | 2230 ft | 88 kts | 141° |
| 2026-05-04 13:53 | 53.03115 | -2.38171 | 2235 ft | 88 kts | 141° |
| 2026-05-04 13:53 | 53.02638 | -2.37540 | 2241 ft | 88 kts | 142° |
| 2026-05-04 13:54 | 53.01672 | -2.36296 | 2258 ft | 88 kts | 142° |
| 2026-05-04 13:54 | 53.01187 | -2.35662 | 2247 ft | 90 kts | 142° |
| 2026-05-04 13:54 | 53.00220 | -2.34376 | 2260 ft | 89 kts | 148° |
| 2026-05-04 13:55 | 52.99635 | -2.34133 | 2263 ft | 88 kts | 182° |
| 2026-05-04 13:55 | 52.98394 | -2.34216 | 2267 ft | 89 kts | 185° |
| 2026-05-04 13:55 | 52.97771 | -2.34330 | 2267 ft | 90 kts | 188° |
| 2026-05-04 13:56 | 52.97144 | -2.34434 | 2241 ft | 91 kts | 188° |
| 2026-05-04 13:56 | 52.96520 | -2.34560 | 2247 ft | 91 kts | 188° |
| 2026-05-04 13:56 | 52.95262 | -2.34765 | 2236 ft | 91 kts | 187° |
| 2026-05-04 13:57 | 52.94635 | -2.34854 | 2232 ft | 91 kts | 186° |
| 2026-05-04 13:57 | 52.93993 | -2.34945 | 2294 ft | 95 kts | 187° |
| 2026-05-04 13:58 | 52.92121 | -2.35218 | 3066 ft | 92 kts | 186° |
| 2026-05-04 13:58 | 52.90842 | -2.35355 | 3064 ft | 92 kts | 186° |
| 2026-05-04 13:58 | 52.90201 | -2.35436 | 3062 ft | 92 kts | 187° |
| 2026-05-04 13:59 | 52.89563 | -2.35531 | 3064 ft | 92 kts | 188° |
| 2026-05-04 13:59 | 52.88925 | -2.35647 | 3085 ft | 92 kts | 187° |
| 2026-05-04 13:59 | 52.87630 | -2.35850 | 3059 ft | 95 kts | 188° |
| 2026-05-04 14:00 | 52.86981 | -2.35939 | 3077 ft | 93 kts | 187° |
| 2026-05-04 14:00 | 52.85680 | -2.36112 | 3063 ft | 94 kts | 186° |
| 2026-05-04 14:00 | 52.85030 | -2.36183 | 3068 ft | 93 kts | 186° |
| 2026-05-04 14:01 | 52.84379 | -2.36266 | 3069 ft | 94 kts | 187° |
| 2026-05-04 14:01 | 52.83730 | -2.36366 | 3061 ft | 94 kts | 188° |
| 2026-05-04 14:01 | 52.82431 | -2.36570 | 3048 ft | 94 kts | 187° |
| 2026-05-04 14:02 | 52.81793 | -2.36661 | 3026 ft | 94 kts | 187° |
| 2026-05-04 14:02 | 52.81140 | -2.36765 | 3017 ft | 94 kts | 186° |
| 2026-05-04 14:02 | 52.80491 | -2.36842 | 3013 ft | 93 kts | 186° |
| 2026-05-04 14:02 | 52.79843 | -2.36933 | 3006 ft | 94 kts | 187° |
| 2026-05-04 14:03 | 52.79201 | -2.37031 | 3032 ft | 93 kts | 187° |
| 2026-05-04 14:03 | 52.78556 | -2.37095 | 3031 ft | 93 kts | 185° |
| 2026-05-04 14:03 | 52.77911 | -2.37144 | 3031 ft | 93 kts | 185° |
| 2026-05-04 14:03 | 52.77263 | -2.37223 | 3034 ft | 94 kts | 187° |
| 2026-05-04 14:04 | 52.75972 | -2.37448 | 3057 ft | 93 kts | 188° |
| 2026-05-04 14:04 | 52.75335 | -2.37528 | 3064 ft | 93 kts | 186° |
| 2026-05-04 14:04 | 52.74690 | -2.37611 | 3064 ft | 92 kts | 186° |
| 2026-05-04 14:05 | 52.73400 | -2.37777 | 3068 ft | 93 kts | 187° |
| 2026-05-04 14:05 | 52.72757 | -2.37854 | 3069 ft | 92 kts | 186° |
| 2026-05-04 14:05 | 52.72115 | -2.37939 | 3064 ft | 93 kts | 187° |
| 2026-05-04 14:06 | 52.71474 | -2.38035 | 3067 ft | 93 kts | 187° |
| 2026-05-04 14:06 | 52.70834 | -2.38160 | 3075 ft | 92 kts | 189° |
| 2026-05-04 14:06 | 52.70194 | -2.38287 | 3069 ft | 93 kts | 186° |
| 2026-05-04 14:06 | 52.69553 | -2.38398 | 3081 ft | 93 kts | 189° |
| 2026-05-04 14:07 | 52.68918 | -2.38544 | 3075 ft | 89 kts | 189° |
| 2026-05-04 14:07 | 52.68301 | -2.38649 | 2912 ft | 91 kts | 182° |
| 2026-05-04 14:07 | 52.67668 | -2.38712 | 2754 ft | 91 kts | 185° |
| 2026-05-04 14:07 | 52.67031 | -2.38815 | 2598 ft | 92 kts | 187° |
| 2026-05-04 14:08 | 52.66395 | -2.38919 | 2443 ft | 92 kts | 186° |
| 2026-05-04 14:08 | 52.65759 | -2.39027 | 2304 ft | 94 kts | 188° |
| 2026-05-04 14:08 | 52.65125 | -2.39174 | 2282 ft | 93 kts | 187° |
| 2026-05-04 14:08 | 52.64476 | -2.39269 | 2278 ft | 93 kts | 187° |
| 2026-05-04 14:09 | 52.63183 | -2.39523 | 2264 ft | 94 kts | 187° |
| 2026-05-04 14:09 | 52.62529 | -2.39644 | 2259 ft | 95 kts | 187° |
| 2026-05-04 14:10 | 52.61224 | -2.39989 | 2238 ft | 95 kts | 186° |
| 2026-05-04 14:10 | 52.60580 | -2.40058 | 2267 ft | 93 kts | 185° |
| 2026-05-04 14:10 | 52.59931 | -2.40226 | 2307 ft | 94 kts | 193° |
| 2026-05-04 14:10 | 52.59284 | -2.40372 | 2379 ft | 94 kts | 187° |
| 2026-05-04 14:11 | 52.58636 | -2.40483 | 2457 ft | 93 kts | 183° |
| 2026-05-04 14:11 | 52.57321 | -2.40632 | 2522 ft | 99 kts | 187° |
| 2026-05-04 14:11 | 52.56634 | -2.40789 | 2513 ft | 103 kts | 192° |
| 2026-05-04 14:12 | 52.55935 | -2.41012 | 2587 ft | 99 kts | 193° |
| 2026-05-04 14:12 | 52.55249 | -2.41243 | 2558 ft | 102 kts | 191° |
| 2026-05-04 14:12 | 52.54348 | -2.40173 | 2584 ft | 91 kts | 94° |
| 2026-05-04 14:13 | 52.54315 | -2.39074 | 2462 ft | 97 kts | 94° |
| 2026-05-04 14:13 | 52.54266 | -2.37979 | 2264 ft | 99 kts | 96° |
| 2026-05-04 14:13 | 52.54174 | -2.36864 | 2218 ft | 93 kts | 100° |
| 2026-05-04 14:13 | 52.54090 | -2.35805 | 2134 ft | 93 kts | 99° |
| 2026-05-04 14:14 | 52.53964 | -2.34769 | 2116 ft | 90 kts | 104° |
| 2026-05-04 14:14 | 52.53513 | -2.32855 | 2174 ft | 91 kts | 127° |
| 2026-05-04 14:14 | 52.53126 | -2.32061 | 2243 ft | 90 kts | 128° |
| 2026-05-04 14:15 | 52.52309 | -2.30481 | 2284 ft | 92 kts | 133° |
| 2026-05-04 14:15 | 52.51426 | -2.28945 | 2249 ft | 94 kts | 136° |
| 2026-05-04 14:16 | 52.50960 | -2.27063 | 2268 ft | 92 kts | 87° |
| 2026-05-04 14:16 | 52.51105 | -2.26057 | 2297 ft | 89 kts | 76° |
| 2026-05-04 14:17 | 52.51681 | -2.24463 | 2307 ft | 78 kts | 15° |
| 2026-05-04 14:17 | 52.52178 | -2.24836 | 2151 ft | 83 kts | 329° |
| 2026-05-04 14:17 | 52.53133 | -2.25915 | 1764 ft | 87 kts | 303° |
| 2026-05-04 14:18 | 52.53107 | -2.26553 | 1601 ft | 93 kts | 244° |
| 2026-05-04 14:18 | 52.52493 | -2.28322 | 1304 ft | 91 kts | 249° |
| 2026-05-04 14:19 | 52.51807 | -2.29992 | 1336 ft | 92 kts | 190° |
| 2026-05-04 14:19 | 52.51220 | -2.29740 | 1265 ft | 89 kts | 155° |
| 2026-05-04 14:19 | 52.50644 | -2.29304 | 1205 ft | 90 kts | 154° |
| 2026-05-04 14:19 | 52.50070 | -2.28888 | 1265 ft | 90 kts | 158° |
| 2026-05-04 14:20 | 52.49499 | -2.28513 | 1300 ft | 89 kts | 157° |
| 2026-05-04 14:20 | 52.49015 | -2.27985 | 1336 ft | 76 kts | 120° |
| 2026-05-04 14:20 | 52.49057 | -2.27227 | 1155 ft | 69 kts | 57° |
| 2026-05-04 14:21 | 52.49586 | -2.25925 | 853 ft | 60 kts | 56° |
| 2026-05-04 14:21 | 52.49808 | -2.25337 | 796 ft | 61 kts | 57° |
| 2026-05-04 14:21 | 52.50179 | -2.25078 | 694 ft | 61 kts | 12° |
| 2026-05-04 14:21 | 52.50606 | -2.25146 | 512 ft | 63 kts | 357° |
| 2026-05-04 14:22 | 52.51011 | -2.25420 | 389 ft | 63 kts | 339° |
| 2026-05-04 14:22 | 52.51404 | -2.25714 | 296 ft | 60 kts | 340° |
| 2026-05-04 14:22 | 52.51737 | -2.25955 | 273 ft | 43 kts | 338° |
| 2026-05-04 14:22 | 52.51921 | -2.26090 | 274 ft | 15 kts | 335° |
| 2026-05-04 14:23 | 52.51961 | -2.26255 | 275 ft | 15 kts | 217° |
| 2026-05-04 14:23 | 52.51872 | -2.26366 | 277 ft | 18 kts | 217° |
| 2026-05-04 14:23 | 52.51761 | -2.26501 | 277 ft | 20 kts | 217° |
| 2026-05-04 14:24 | 52.51662 | -2.26621 | 274 ft | 16 kts | 217° |
| 2026-05-04 14:24 | 52.51578 | -2.26724 | 262 ft | 7 kts | 214° |
| 2026-05-04 14:24 | 52.51544 | -2.26678 | 263 ft | 9 kts | 96° |
| 2026-05-04 14:24 | 52.51537 | -2.26566 | 266 ft | 12 kts | 96° |
| 2026-05-04 14:25 | 52.51527 | -2.26418 | 268 ft | 14 kts | 95° |
| 2026-05-04 14:25 | 52.51546 | -2.26268 | 270 ft | 5 kts | 49° |
| 2026-05-04 14:25 | 52.51536 | -2.26256 | 270 ft | 0 kts | 270° |